Time;durP1;ratioP1;P1;durP2;ratioP2;P2;SDS_P1;SDS_P2;PMS_P1;PMS_P2;Temp;Humidity;BMP_temperature;BMP_pressure;BME280_temperature;BME280_humidity;BME280_pressure;Samples;Min_cycle;Max_cycle;Signal;HPM_P1;HPM_P2
2022/09/02 00:00:43;;;;;;;1.77;1.20;;;20.50;48.70;;;;;;5034842;28;20028;-69
2022/09/02 00:03:09;;;;;;;;;;;20.50;48.70;;;;;;5033789;28;20029;-68
2022/09/02 00:05:35;;;;;;;6.47;1.00;;;20.50;49.10;;;;;;5016900;28;20263;-69
2022/09/02 00:08:01;;;;;;;1.10;0.90;;;20.50;48.70;;;;;;5034748;28;20029;-68
2022/09/02 00:10:26;;;;;;;2.58;1.20;;;20.40;48.90;;;;;;5034855;28;20440;-70
2022/09/02 00:12:52;;;;;;;1.63;1.00;;;20.40;48.80;;;;;;5034583;28;20115;-69
2022/09/02 00:15:18;;;;;;;1.52;1.30;;;20.30;48.90;;;;;;5034483;28;20021;-69
2022/09/02 00:17:44;;;;;;;6.63;1.40;;;20.30;49.10;;;;;;5036938;28;20316;-71
2022/09/02 00:20:10;;;;;;;2.78;1.40;;;20.20;49.00;;;;;;5036235;28;20443;-72
2022/09/02 00:22:36;;;;;;;2.50;1.10;;;20.10;48.90;;;;;;5054067;28;20049;-72
2022/09/02 00:25:02;;;;;;;2.45;1.15;;;20.10;49.20;;;;;;5054271;28;20027;-74
2022/09/02 00:27:28;;;;;;;2.08;1.40;;;20.00;49.10;;;;;;5054195;28;20378;-70
2022/09/02 00:29:53;;;;;;;1.70;1.15;;;20.00;48.80;;;;;;5054226;28;20021;-71
2022/09/02 00:32:19;;;;;;;1.90;1.00;;;19.90;48.80;;;;;;5054171;28;20489;-71
2022/09/02 00:34:45;;;;;;;1.95;1.23;;;19.90;48.90;;;;;;5052070;28;20036;-69
2022/09/02 00:37:12;;;;;;;3.75;1.10;;;19.90;48.60;;;;;;5053975;28;20090;-70
2022/09/02 00:39:37;;;;;;;3.38;0.95;;;19.70;48.10;;;;;;5054010;28;20036;-72
2022/09/02 00:42:04;;;;;;;2.00;0.90;;;19.70;48.20;;;;;;5053899;28;20018;-69
2022/09/02 00:44:30;;;;;;;1.67;0.95;;;19.60;48.40;;;;;;5053804;28;20079;-69
2022/09/02 00:46:56;;;;;;;1.40;0.70;;;19.60;48.40;;;;;;5053919;28;20505;-70
2022/09/02 00:49:32;;;;;;;2.60;1.30;;;19.60;48.30;;;;;;5037613;28;20033;-67
2022/09/02 00:52:01;;;;;;;3.80;0.88;;;19.50;48.30;;;;;;5033846;28;20018;-71
2022/09/02 00:54:29;;;;;;;1.75;0.93;;;19.50;48.50;;;;;;5033744;28;20030;-69
2022/09/02 00:56:56;;;;;;;1.95;0.90;;;19.50;48.30;;;;;;5033786;28;20025;-69
2022/09/02 00:59:53;;;;;;;1.20;0.88;;;19.40;48.20;;;;;;5033556;28;20021;-71
2022/09/02 01:02:22;;;;;;;3.40;1.00;;;19.40;48.30;;;;;;5005054;28;20034;-68
2022/09/02 01:04:48;;;;;;;1.30;0.98;;;19.40;47.90;;;;;;5013937;28;20549;-70
2022/09/02 01:07:14;;;;;;;0.98;0.70;;;19.40;48.20;;;;;;5014155;28;20029;-70
2022/09/02 01:09:41;;;;;;;2.47;0.98;;;19.40;48.10;;;;;;5013827;28;20026;-70
2022/09/02 01:12:07;;;;;;;2.70;0.90;;;19.40;48.50;;;;;;5013781;28;20029;-70
2022/09/02 01:14:34;;;;;;;2.78;0.93;;;19.30;47.80;;;;;;5012396;28;20549;-71
2022/09/02 01:17:01;;;;;;;2.97;0.77;;;19.30;47.80;;;;;;5013710;28;20057;-68
2022/09/02 01:19:42;;;;;;;1.52;0.82;;;19.30;48.30;;;;;;5045951;28;20029;-71
2022/09/02 01:22:20;;;;;;;1.88;0.90;;;19.20;47.90;;;;;;5053089;28;20098;-73
2022/09/02 01:24:46;;;;;;;0.80;0.70;;;19.20;47.90;;;;;;5053243;28;20526;-71
2022/09/02 01:27:17;;;;;;;1.30;0.90;;;19.20;47.80;;;;;;5053168;28;20025;-70
2022/09/02 01:29:43;;;;;;;2.20;1.05;;;19.20;48.00;;;;;;5053151;28;20029;-72
2022/09/02 01:32:10;;;;;;;2.20;1.02;;;19.20;48.20;;;;;;5035247;28;20121;-69
2022/09/02 01:34:36;;;;;;;0.90;0.70;;;19.20;48.20;;;;;;5053035;28;20049;-70
2022/09/02 01:37:02;;;;;;;1.60;0.80;;;19.20;48.20;;;;;;5035222;28;20075;-68
2022/09/02 01:39:27;;;;;;;1.17;0.73;;;19.10;48.20;;;;;;5053009;28;20048;-69
2022/09/02 01:41:53;;;;;;;3.65;0.90;;;19.10;48.20;;;;;;5053013;28;20056;-71
2022/09/02 01:44:19;;;;;;;2.08;0.90;;;19.10;48.30;;;;;;5034886;28;20113;-72
2022/09/02 01:46:45;;;;;;;3.55;0.90;;;19.00;48.30;;;;;;5052971;28;20025;-69
2022/09/02 01:49:11;;;;;;;1.88;1.10;;;19.00;48.20;;;;;;5021001;28;20083;-69
2022/09/02 01:51:36;;;;;;;1.48;0.80;;;19.00;48.40;;;;;;5032989;28;20064;-68
2022/09/02 01:54:02;;;;;;;1.27;0.60;;;19.00;48.40;;;;;;5032985;28;20029;-71
2022/09/02 01:56:28;;;;;;;2.83;1.33;;;19.00;48.50;;;;;;5032948;28;20022;-71
2022/09/02 01:58:54;;;;;;;2.33;0.70;;;18.90;48.40;;;;;;5032821;28;20036;-70
2022/09/02 02:01:20;;;;;;;1.58;0.80;;;18.90;48.50;;;;;;5032887;28;20112;-67
2022/09/02 02:03:46;;;;;;;1.60;1.00;;;18.90;48.70;;;;;;5032838;28;20064;-70
2022/09/02 02:06:15;;;;;;;3.47;1.08;;;18.90;48.70;;;;;;5032865;28;20026;-67
2022/09/02 02:08:42;;;;;;;2.50;1.13;;;18.90;48.80;;;;;;5032836;28;20029;-69
2022/09/02 02:11:08;;;;;;;0.95;0.70;;;18.80;48.70;;;;;;5032820;28;20029;-71
2022/09/02 02:13:35;;;;;;;1.42;1.33;;;18.80;48.80;;;;;;5036469;28;20025;-71
2022/09/02 02:16:01;;;;;;;1.73;0.65;;;18.80;48.90;;;;;;5036766;28;20032;-71
2022/09/02 02:18:28;;;;;;;1.73;0.60;;;18.80;48.80;;;;;;5043858;28;20110;-71
2022/09/02 02:20:54;;;;;;;2.78;0.90;;;18.70;48.70;;;;;;5038461;28;20107;-73
2022/09/02 02:23:21;;;;;;;2.55;1.00;;;18.70;48.60;;;;;;5056386;28;20051;-73
2022/09/02 02:25:47;;;;;;;3.92;0.82;;;18.70;48.50;;;;;;5038964;28;20386;-69
2022/09/02 02:28:13;;;;;;;1.60;0.90;;;18.70;48.70;;;;;;5056523;28;20101;-72
2022/09/02 02:30:39;;;;;;;2.92;0.90;;;18.60;48.70;;;;;;5056481;28;20021;-72
2022/09/02 02:33:05;;;;;;;4.72;0.80;;;18.60;48.80;;;;;;5056459;28;20086;-71
2022/09/02 02:35:30;;;;;;;1.50;0.77;;;18.60;48.50;;;;;;5056360;28;20454;-71
2022/09/02 02:37:56;;;;;;;2.65;0.90;;;18.60;48.60;;;;;;5056399;28;20052;-70
2022/09/02 02:40:24;;;;;;;3.42;1.00;;;18.60;48.70;;;;;;5056235;28;20057;-71
2022/09/02 02:42:54;;;;;;;1.67;0.80;;;18.50;48.20;;;;;;5056220;28;20035;-73
2022/09/02 02:45:22;;;;;;;2.53;1.30;;;18.50;48.60;;;;;;5056284;28;20522;-70
2022/09/02 02:47:48;;;;;;;1.88;0.80;;;18.50;48.80;;;;;;5054075;28;20451;-71
2022/09/02 02:50:18;;;;;;;1.73;0.70;;;18.50;48.70;;;;;;5034914;28;20057;-68
2022/09/02 02:52:45;;;;;;;1.52;1.13;;;18.50;48.80;;;;;;5036194;28;20037;-69
2022/09/02 02:55:12;;;;;;;1.38;0.63;;;18.40;48.70;;;;;;5034849;28;20075;-67
2022/09/02 02:57:39;;;;;;;3.05;0.85;;;18.40;48.90;;;;;;5035885;28;20356;-70
2022/09/02 03:00:12;;;;;;;1.30;0.70;;;18.40;48.90;;;;;;5035817;28;20025;-71
2022/09/02 03:02:38;;;;;;;1.77;1.00;;;18.30;48.70;;;;;;5035738;28;20037;-72
2022/09/02 03:05:06;;;;;;;2.70;1.92;;;18.30;49.00;;;;;;5035855;28;20034;-71
2022/09/02 03:07:32;;;;;;;1.48;1.00;;;18.30;49.20;;;;;;5035893;28;20029;-70
2022/09/02 03:09:57;;;;;;;1.83;0.82;;;18.30;49.20;;;;;;5035872;28;20067;-71
2022/09/02 03:12:24;;;;;;;2.00;1.00;;;18.30;49.30;;;;;;5035800;28;20017;-71
2022/09/02 03:14:51;;;;;;;4.18;1.00;;;18.20;49.30;;;;;;5035717;28;20022;-68
2022/09/02 03:17:17;;;;;;;2.13;0.93;;;18.20;49.40;;;;;;5035708;28;20103;-70
2022/09/02 03:19:42;;;;;;;1.55;0.98;;;18.20;49.70;;;;;;5052568;28;20017;-74
2022/09/02 03:22:09;;;;;;;2.30;0.60;;;18.10;49.70;;;;;;5054143;28;20051;-69
2022/09/02 03:24:37;;;;;;;1.92;1.02;;;18.10;49.70;;;;;;5054043;28;20497;-68
2022/09/02 03:27:04;;;;;;;3.30;1.02;;;18.10;49.90;;;;;;5055509;28;20025;-70
2022/09/02 03:29:29;;;;;;;3.28;1.05;;;18.10;49.80;;;;;;5055549;28;20096;-72
2022/09/02 03:31:56;;;;;;;2.25;0.98;;;18.10;49.80;;;;;;5055471;28;20064;-72
2022/09/02 03:34:21;;;;;;;2.53;1.02;;;18.00;50.00;;;;;;5037587;28;20433;-70
2022/09/02 03:36:47;;;;;;;1.55;0.90;;;18.00;50.10;;;;;;5055283;28;20021;-70
2022/09/02 03:39:13;;;;;;;1.95;1.20;;;18.00;50.30;;;;;;5055174;28;20025;-68
2022/09/02 03:41:42;;;;;;;2.30;1.35;;;18.00;50.30;;;;;;5037323;28;20087;-71
2022/09/02 03:44:09;;;;;;;2.10;1.52;;;17.90;50.30;;;;;;5055055;28;20025;-72
2022/09/02 03:46:35;;;;;;;3.42;1.48;;;17.90;50.30;;;;;;5055042;28;20100;-69
2022/09/02 03:49:02;;;;;;;4.30;1.08;;;17.90;50.40;;;;;;5043280;28;20105;-68
2022/09/02 03:51:28;;;;;;;2.38;1.20;;;17.90;50.60;;;;;;5035107;28;20030;-71
2022/09/02 03:53:55;;;;;;;2.28;1.23;;;17.90;50.50;;;;;;5034943;28;20025;-71
2022/09/02 03:56:23;;;;;;;2.42;1.10;;;17.90;50.30;;;;;;5034815;28;20393;-68
2022/09/02 03:58:50;;;;;;;2.08;1.00;;;17.80;50.20;;;;;;5034916;28;20548;-71
2022/09/02 04:01:20;;;;;;;1.90;1.08;;;17.80;50.30;;;;;;5034860;28;20117;-69
2022/09/02 04:03:46;;;;;;;2.25;1.10;;;17.80;50.20;;;;;;5034489;28;20022;-71
2022/09/02 04:06:15;;;;;;;1.20;0.85;;;17.80;50.30;;;;;;5034782;28;20018;-68
2022/09/02 04:08:43;;;;;;;2.30;1.00;;;17.80;50.20;;;;;;5034697;28;20034;-72
2022/09/02 04:11:13;;;;;;;1.92;0.80;;;17.80;50.30;;;;;;5034894;28;20021;-68
2022/09/02 04:13:39;;;;;;;2.85;1.15;;;17.80;50.20;;;;;;5034654;28;20029;-72
2022/09/02 04:16:10;;;;;;;4.50;1.52;;;17.80;50.20;;;;;;5033199;28;20502;-70
2022/09/02 04:18:36;;;;;;;1.90;0.90;;;17.80;50.10;;;;;;5041615;28;20036;-71
2022/09/02 04:21:03;;;;;;;3.25;1.38;;;17.80;50.30;;;;;;5054109;28;20033;-72
2022/09/02 04:23:30;;;;;;;1.83;1.00;;;17.80;50.30;;;;;;5054091;28;20128;-69
2022/09/02 04:25:55;;;;;;;1.02;0.80;;;17.80;50.30;;;;;;5054283;28;20020;-73
2022/09/02 04:28:21;;;;;;;1.80;1.10;;;17.80;50.40;;;;;;5054224;28;20609;-73
2022/09/02 04:30:48;;;;;;;4.93;1.48;;;17.80;50.60;;;;;;5054227;28;20021;-72
2022/09/02 04:33:14;;;;;;;4.88;1.42;;;17.70;50.70;;;;;;5054068;28;20032;-68
2022/09/02 04:35:41;;;;;;;3.30;1.40;;;17.70;50.70;;;;;;5053694;28;20033;-68
2022/09/02 04:38:07;;;;;;;4.53;1.48;;;17.70;50.50;;;;;;5054106;28;20021;-69
2022/09/02 04:40:33;;;;;;;2.85;1.10;;;17.70;50.50;;;;;;5054012;28;20083;-69
2022/09/02 04:42:59;;;;;;;3.45;1.55;;;17.70;50.40;;;;;;5053885;28;20040;-71
2022/09/02 04:45:24;;;;;;;5.28;1.23;;;17.60;50.50;;;;;;5053850;28;20021;-71
2022/09/02 04:47:50;;;;;;;4.18;1.00;;;17.60;50.60;;;;;;5052796;28;20413;-69
2022/09/02 04:50:16;;;;;;;4.50;1.13;;;17.60;50.50;;;;;;5033862;28;20026;-68
2022/09/02 04:52:41;;;;;;;1.50;0.93;;;17.60;50.60;;;;;;5033785;28;20448;-71
2022/09/02 04:55:09;;;;;;;2.95;1.40;;;17.60;50.60;;;;;;5033684;28;20045;-70
2022/09/02 04:57:35;;;;;;;1.85;0.88;;;17.60;50.50;;;;;;5033756;28;20018;-71
2022/09/02 05:00:05;;;;;;;3.03;1.30;;;17.70;50.50;;;;;;5033718;28;20080;-69
2022/09/02 05:02:31;;;;;;;3.38;2.00;;;17.70;50.50;;;;;;5033603;28;20048;-68
2022/09/02 05:04:57;;;;;;;8.20;2.00;;;17.70;50.60;;;;;;5033705;28;20533;-71
2022/09/02 05:07:23;;;;;;;3.35;1.60;;;17.70;50.80;;;;;;5033598;28;20026;-73
2022/09/02 05:09:49;;;;;;;4.05;1.52;;;17.70;50.90;;;;;;5033436;28;20049;-69
2022/09/02 05:12:15;;;;;;;2.22;1.10;;;17.80;50.90;;;;;;5033542;28;20029;-70
2022/09/02 05:14:40;;;;;;;2.80;1.08;;;17.80;51.00;;;;;;5015691;28;20040;-72
2022/09/02 05:17:06;;;;;;;2.80;1.13;;;17.80;50.80;;;;;;5033458;28;20025;-71
2022/09/02 05:19:32;;;;;;;4.32;1.17;;;17.90;50.80;;;;;;5047317;28;20044;-70
2022/09/02 05:22:00;;;;;;;3.58;1.25;;;17.90;50.70;;;;;;5053063;28;20111;-68
2022/09/02 05:24:27;;;;;;;2.83;1.10;;;18.00;50.70;;;;;;5053148;28;20108;-72
2022/09/02 05:26:53;;;;;;;2.10;1.05;;;18.00;50.50;;;;;;5035377;28;20053;-68
2022/09/02 05:29:21;;;;;;;2.90;1.13;;;18.10;50.40;;;;;;5039578;28;20131;-73
2022/09/02 05:31:47;;;;;;;2.60;0.98;;;18.20;50.20;;;;;;5038876;28;20026;-71
2022/09/02 05:34:13;;;;;;;3.28;0.85;;;18.20;50.10;;;;;;5033186;28;20105;-70
2022/09/02 05:36:39;;;;;;;2.17;1.05;;;18.20;49.90;;;;;;5033119;28;20097;-70
2022/09/02 05:39:05;;;;;;;2.92;1.13;;;18.30;49.90;;;;;;5033308;28;20121;-70
2022/09/02 05:41:32;;;;;;;1.92;1.00;;;18.30;49.70;;;;;;5033082;28;20034;-70
2022/09/02 05:44:00;;;;;;;2.55;1.75;;;18.40;49.60;;;;;;5033877;28;20040;-70
2022/09/02 05:46:27;;;;;;;4.43;1.45;;;18.40;49.60;;;;;;5032247;28;20029;-70
2022/09/02 05:49:06;;;;;;;2.63;0.98;;;18.40;49.70;;;;;;5032984;28;20013;-70
2022/09/02 05:51:47;;;;;;;3.58;1.20;;;18.50;49.70;;;;;;5031676;28;20022;-70
2022/09/02 05:54:25;;;;;;;2.47;1.00;;;18.50;49.50;;;;;;5032962;28;20359;-70
2022/09/02 05:56:55;;;;;;;1.67;0.73;;;18.60;49.50;;;;;;5032999;28;20036;-70
2022/09/02 05:59:22;;;;;;;1.10;0.82;;;18.60;49.30;;;;;;5032933;28;20502;-71
2022/09/02 06:01:48;;;;;;;1.80;0.82;;;18.60;49.00;;;;;;5048743;28;20111;-70
2022/09/02 06:04:14;;;;;;;1.98;1.00;;;18.60;48.90;;;;;;5052743;28;20048;-70
2022/09/02 06:06:41;;;;;;;4.20;0.95;;;18.70;48.90;;;;;;5052713;28;20064;-70
2022/09/02 06:09:08;;;;;;;1.67;0.88;;;18.70;48.60;;;;;;5034863;28;20439;-70
2022/09/02 06:11:43;;;;;;;1.35;0.80;;;18.70;48.70;;;;;;5052638;28;20100;-70
2022/09/02 06:14:09;;;;;;;2.17;1.00;;;18.70;48.70;;;;;;5051180;28;20390;-70
2022/09/02 06:16:36;;;;;;;2.75;0.90;;;18.80;48.70;;;;;;5038302;28;20451;-70
2022/09/02 06:19:03;;;;;;;3.22;1.02;;;18.80;48.50;;;;;;5032564;28;20021;-70
2022/09/02 06:21:30;;;;;;;2.03;1.05;;;18.90;48.70;;;;;;5032510;28;20082;-71
2022/09/02 06:23:55;;;;;;;2.72;1.15;;;18.90;48.30;;;;;;5047476;28;20029;-70
2022/09/02 06:26:21;;;;;;;2.22;1.00;;;19.00;48.20;;;;;;5051294;28;20090;-71
2022/09/02 06:28:47;;;;;;;6.75;1.08;;;19.00;48.10;;;;;;5051667;28;20528;-70
2022/09/02 06:31:20;;;;;;;1.85;1.15;;;19.00;48.40;;;;;;5031400;28;20160;-70
2022/09/02 06:33:46;;;;;;;2.35;0.95;;;19.10;48.40;;;;;;5033123;28;20021;-70
2022/09/02 06:36:17;;;;;;;1.65;0.90;;;19.10;48.20;;;;;;5031945;28;20100;-70
2022/09/02 06:38:48;;;;;;;1.50;0.90;;;19.20;48.10;;;;;;5031298;28;20119;-70
2022/09/02 06:41:17;;;;;;;2.80;0.80;;;19.20;47.70;;;;;;5032543;28;20097;-70
2022/09/02 06:43:43;;;;;;;2.88;0.88;;;19.20;47.90;;;;;;5030847;28;20368;-71
2022/09/02 06:46:21;;;;;;;3.05;0.70;;;19.30;47.90;;;;;;5032322;28;20022;-71
2022/09/02 06:48:48;;;;;;;1.73;0.82;;;19.30;47.60;;;;;;5032494;28;20051;-70
2022/09/02 06:51:20;;;;;;;0.93;0.60;;;19.40;47.80;;;;;;5032413;28;20018;-71
2022/09/02 06:53:45;;;;;;;2.63;0.88;;;19.40;47.70;;;;;;5012628;28;20029;-71
2022/09/02 06:56:11;;;;;;;1.45;0.80;;;19.40;47.60;;;;;;5011429;28;20080;-70
2022/09/02 06:58:37;;;;;;;2.10;0.88;;;19.50;47.60;;;;;;5014364;28;20065;-70
2022/09/02 07:01:03;;;;;;;2.88;1.08;;;19.50;47.40;;;;;;5016203;28;20049;-70
2022/09/02 07:06:13;;;;;;;1.85;0.90;;;19.60;46.70;;;;;;5016367;28;20088;-70
2022/09/02 07:08:41;;;;;;;1.05;0.70;;;19.60;46.60;;;;;;5016026;28;20110;-70
2022/09/02 07:11:18;;;;;;;1.20;0.80;;;19.60;46.40;;;;;;5016031;28;20084;-71
2022/09/02 07:13:44;;;;;;;1.55;1.20;;;19.70;46.80;;;;;;5031452;28;20032;-70
2022/09/02 07:16:11;;;;;;;2.05;0.70;;;19.70;47.00;;;;;;5037777;28;20033;-70
2022/09/02 07:18:37;;;;;;;4.95;0.82;;;19.80;46.90;;;;;;5055558;28;20130;-70
2022/09/02 07:21:02;;;;;;;1.73;1.17;;;19.80;46.90;;;;;;5055552;28;20549;-70
2022/09/02 07:23:28;;;;;;;2.22;1.10;;;19.90;46.70;;;;;;5037319;28;20045;-70
2022/09/02 07:25:54;;;;;;;2.45;0.90;;;19.90;46.70;;;;;;5055481;28;20079;-70
2022/09/02 07:28:21;;;;;;;1.05;0.73;;;20.00;46.90;;;;;;5037552;28;20055;-70
2022/09/02 07:30:47;;;;;;;11.68;1.15;;;20.00;46.60;;;;;;5055311;28;20027;-70
2022/09/02 07:33:14;;;;;;;3.38;1.20;;;20.10;47.00;;;;;;5037239;28;20033;-70
2022/09/02 07:35:44;;;;;;;2.45;0.93;;;20.20;47.10;;;;;;5055265;28;20223;-71
2022/09/02 07:38:10;;;;;;;2.90;0.90;;;20.20;46.50;;;;;;5055226;28;20021;-70
2022/09/02 07:40:38;;;;;;;2.25;1.20;;;20.30;46.40;;;;;;5055165;28;20099;-70
2022/09/02 07:43:06;;;;;;;4.05;1.35;;;20.30;46.60;;;;;;5052801;28;20021;-71
2022/09/02 07:45:32;;;;;;;3.65;1.38;;;20.40;46.60;;;;;;5035115;28;20013;-70
2022/09/02 07:47:58;;;;;;;1.05;0.80;;;20.40;46.80;;;;;;5035355;28;20018;-70
2022/09/02 07:50:26;;;;;;;5.28;0.90;;;20.50;46.80;;;;;;5034942;28;20379;-70
2022/09/02 07:52:54;;;;;;;2.28;0.98;;;20.60;46.00;;;;;;5033706;28;20021;-70
2022/09/02 07:55:21;;;;;;;3.92;1.13;;;20.60;46.00;;;;;;5035095;28;20024;-71
2022/09/02 07:57:47;;;;;;;1.10;0.82;;;20.60;45.80;;;;;;5034997;28;20068;-70
2022/09/02 08:00:15;;;;;;;1.88;0.90;;;20.70;45.80;;;;;;5035001;28;20022;-70
2022/09/02 08:02:41;;;;;;;2.40;1.17;;;20.70;45.90;;;;;;5034745;28;20108;-70
2022/09/02 08:05:07;;;;;;;3.28;0.90;;;20.80;45.80;;;;;;5034791;28;20429;-71
2022/09/02 08:07:33;;;;;;;3.63;1.05;;;20.80;45.90;;;;;;5034650;28;20021;-70
2022/09/02 08:10:00;;;;;;;2.72;1.10;;;20.90;45.80;;;;;;5033937;28;20100;-71
2022/09/02 08:12:27;;;;;;;3.28;1.25;;;20.90;45.90;;;;;;5033338;28;20028;-71
2022/09/02 08:14:52;;;;;;;2.67;1.40;;;20.90;45.90;;;;;;5050386;28;20025;-70
2022/09/02 08:17:19;;;;;;;1.30;1.00;;;21.00;45.90;;;;;;5054515;28;20029;-69
2022/09/02 08:19:45;;;;;;;3.75;1.25;;;21.10;46.00;;;;;;5054748;28;20032;-68
2022/09/02 08:22:10;;;;;;;8.27;1.27;;;21.10;46.00;;;;;;5054154;28;20080;-70
2022/09/02 08:24:36;;;;;;;7.18;1.10;;;21.20;46.00;;;;;;5054263;28;20053;-70
2022/09/02 08:27:02;;;;;;;1.77;1.02;;;21.20;45.60;;;;;;5054243;28;20382;-70
2022/09/02 08:29:28;;;;;;;1.33;0.88;;;21.30;45.30;;;;;;5054269;28;20509;-70
2022/09/02 08:31:54;;;;;;;2.25;0.85;;;21.30;45.40;;;;;;5054210;28;20040;-69
2022/09/02 08:34:19;;;;;;;2.42;1.15;;;21.40;45.30;;;;;;5054164;28;20499;-70
2022/09/02 08:36:45;;;;;;;1.88;0.90;;;21.30;45.00;;;;;;5054056;28;20036;-70
2022/09/02 08:39:11;;;;;;;3.47;0.88;;;21.40;44.90;;;;;;5054007;28;20035;-70
2022/09/02 08:41:55;;;;;;;6.05;0.80;;;21.40;44.80;;;;;;5053849;28;20029;-70
2022/09/02 08:44:23;;;;;;;;;;;21.50;44.90;;;;;;5042025;28;20526;-69
2022/09/02 08:46:56;;;;;;;4.47;1.05;;;21.60;45.50;;;;;;5033751;28;20014;-70
2022/09/02 08:49:36;;;;;;;2.70;0.80;;;21.70;44.50;;;;;;5032541;28;20021;-70
2022/09/02 08:52:04;;;;;;;2.25;0.73;;;21.70;44.70;;;;;;5033899;28;20029;-70
2022/09/02 08:54:44;;;;;;;2.08;1.10;;;21.70;44.50;;;;;;5032570;28;20040;-70
2022/09/02 08:57:10;;;;;;;1.60;0.70;;;21.80;44.20;;;;;;5032497;28;20033;-70
2022/09/02 08:59:37;;;;;;;2.28;0.80;;;21.90;44.20;;;;;;5033691;28;20026;-70
2022/09/02 09:02:31;;;;;;;2.33;0.80;;;21.90;43.40;;;;;;5033805;28;20071;-70
2022/09/02 09:05:21;;;;;;;1.70;0.70;;;21.90;43.30;;;;;;5033692;28;20025;-69
2022/09/02 09:08:04;;;;;;;1.65;0.90;;;21.90;43.10;;;;;;5015928;28;20063;-69
2022/09/02 09:10:37;;;;;;;0.93;0.60;;;22.00;43.40;;;;;;5033590;28;20025;-69
2022/09/02 09:13:19;;;;;;;1.40;0.80;;;22.10;42.70;;;;;;5033995;28;20064;-70
2022/09/02 09:15:54;;;;;;;2.65;0.93;;;22.10;41.60;;;;;;5053230;28;20147;-70
2022/09/02 09:18:36;;;;;;;1.80;0.80;;;22.20;42.10;;;;;;5053421;28;20032;-70
2022/09/02 09:21:03;;;;;;;2.28;0.80;;;22.20;40.80;;;;;;5053294;28;20037;-70
2022/09/02 09:23:32;;;;;;;3.15;0.80;;;22.30;41.60;;;;;;5053050;28;20123;-70
2022/09/02 09:26:10;;;;;;;1.50;0.90;;;22.30;40.60;;;;;;5053284;28;20024;-70
2022/09/02 09:28:39;;;;;;;1.80;0.75;;;22.30;40.70;;;;;;5035349;28;20055;-70
2022/09/02 09:31:10;;;;;;;1.95;0.60;;;22.40;39.00;;;;;;5051837;28;20469;-70
2022/09/02 09:33:36;;;;;;;2.25;0.88;;;22.40;39.30;;;;;;5035197;28;20041;-70
2022/09/02 09:36:04;;;;;;;2.88;0.93;;;22.40;40.20;;;;;;5053174;28;20051;-70
2022/09/02 09:38:33;;;;;;;2.72;0.80;;;22.50;39.90;;;;;;5053134;28;20029;-70
2022/09/02 09:41:20;;;;;;;6.00;1.58;;;22.50;40.20;;;;;;5053051;28;20027;-69
2022/09/02 09:43:46;;;;;;;1.70;0.80;;;22.60;40.10;;;;;;5046040;28;20033;-69
2022/09/02 09:46:28;;;;;;;1.00;0.68;;;22.60;39.60;;;;;;5032946;28;20028;-69
2022/09/02 09:48:54;;;;;;;1.45;0.70;;;22.70;39.20;;;;;;5032839;28;20055;-69
2022/09/02 09:51:20;;;;;;;2.42;1.00;;;22.70;39.50;;;;;;5032999;28;20400;-70
2022/09/02 09:53:46;;;;;;;2.47;0.90;;;22.80;38.50;;;;;;5032941;28;20032;-70
2022/09/02 09:56:15;;;;;;;1.85;0.85;;;22.80;37.60;;;;;;5032890;28;20025;-69
2022/09/02 09:58:41;;;;;;;0.68;0.52;;;22.80;36.00;;;;;;5032934;28;20041;-70
2022/09/02 10:01:22;;;;;;;1.75;0.60;;;22.90;37.20;;;;;;5032907;28;20479;-69
2022/09/02 10:04:09;;;;;;;2.75;0.68;;;22.90;37.70;;;;;;5032746;28;20116;-70
2022/09/02 10:06:39;;;;;;;1.50;0.60;;;22.90;38.00;;;;;;5032818;28;20018;-70
2022/09/02 10:09:34;;;;;;;1.00;0.60;;;23.00;36.60;;;;;;5032798;28;20356;-71
2022/09/02 10:12:04;;;;;;;2.15;1.23;;;23.10;37.70;;;;;;5032835;28;20057;-70
2022/09/02 10:14:47;;;;;;;0.80;0.55;;;23.10;35.60;;;;;;5044607;28;20036;-70
2022/09/02 10:17:34;;;;;;;1.75;0.90;;;23.10;34.80;;;;;;5052663;28;20028;-71
2022/09/02 10:20:07;;;;;;;1.50;0.90;;;23.20;36.20;;;;;;5052701;28;20033;-70
2022/09/02 10:22:55;;;;;;;0.55;0.55;;;23.20;36.40;;;;;;5052375;28;20044;-70
2022/09/02 10:25:53;;;;;;;1.40;0.70;;;23.20;34.80;;;;;;5052607;28;20041;-70
2022/09/02 10:28:25;;;;;;;1.95;0.60;;;23.20;34.10;;;;;;5052598;28;20425;-70
2022/09/02 10:31:19;;;;;;;1.60;0.55;;;23.30;35.40;;;;;;5052506;28;20108;-70
2022/09/02 10:33:44;;;;;;;2.05;1.30;;;23.30;35.40;;;;;;5054557;28;20025;-70
2022/09/02 10:36:16;;;;;;;1.23;0.70;;;23.40;34.30;;;;;;5056319;28;20386;-70
2022/09/02 10:38:45;;;;;;;0.90;0.63;;;23.40;34.10;;;;;;5056170;28;20049;-70
2022/09/02 10:41:35;;;;;;;1.00;0.60;;;23.50;34.50;;;;;;5037981;28;20025;-70
2022/09/02 10:44:24;;;;;;;6.47;0.63;;;23.50;34.30;;;;;;5053049;28;20067;-70
2022/09/02 10:46:50;;;;;;;1.70;0.70;;;23.60;34.60;;;;;;5045588;28;20539;-70
2022/09/02 10:50:00;;;;;;;0.63;0.63;;;23.60;34.50;;;;;;5036011;28;20105;-70
2022/09/02 10:52:57;;;;;;;2.53;1.00;;;23.60;33.80;;;;;;5035992;28;20071;-71
2022/09/02 10:55:33;;;;;;;1.75;0.70;;;23.70;33.50;;;;;;5035950;28;20032;-71
2022/09/02 10:58:11;;;;;;;2.17;0.57;;;23.70;32.90;;;;;;5034677;28;20032;-71
2022/09/02 11:00:43;;;;;;;1.92;0.70;;;23.70;33.80;;;;;;5034608;28;20348;-70
2022/09/02 11:03:14;;;;;;;2.47;0.80;;;23.70;33.40;;;;;;5035834;28;20093;-70
2022/09/02 11:05:55;;;;;;;0.73;0.60;;;23.80;34.40;;;;;;5035957;28;20060;-71
2022/09/02 11:08:45;;;;;;;1.10;0.65;;;23.80;34.10;;;;;;5035908;28;20356;-72
2022/09/02 11:11:23;;;;;;;0.88;0.65;;;23.90;34.30;;;;;;5035795;28;20028;-71
2022/09/02 11:13:56;;;;;;;3.72;0.80;;;23.90;34.80;;;;;;5040005;28;20033;-71
2022/09/02 11:16:40;;;;;;;0.60;0.60;;;23.90;34.10;;;;;;5055567;28;20033;-71
2022/09/02 11:19:06;;;;;;;;;;;23.90;34.00;;;;;;5055928;28;20025;-70
2022/09/02 11:22:12;;;;;;;0.60;0.52;;;24.00;35.40;;;;;;5055305;28;20278;-71
2022/09/02 11:25:09;;;;;;;1.70;0.75;;;24.00;34.70;;;;;;5055429;28;20021;-71
2022/09/02 11:27:47;;;;;;;1.55;0.80;;;24.00;34.80;;;;;;5055299;28;20158;-71
2022/09/02 11:30:16;;;;;;;1.17;0.70;;;24.10;35.10;;;;;;5055438;28;20025;-71
2022/09/02 11:33:00;;;;;;;2.67;0.93;;;24.10;34.80;;;;;;5055129;28;20025;-71
2022/09/02 11:35:32;;;;;;;2.03;0.75;;;24.20;35.10;;;;;;5055271;28;20497;-71
2022/09/02 11:38:02;;;;;;;2.15;0.68;;;24.20;35.20;;;;;;5037366;28;20033;-71
2022/09/02 11:40:42;;;;;;;1.05;0.70;;;24.20;35.10;;;;;;5055241;28;20017;-71
2022/09/02 11:43:31;;;;;;;2.33;0.60;;;24.30;35.80;;;;;;5054764;28;20021;-71
2022/09/02 11:46:07;;;;;;;1.50;0.70;;;24.30;35.70;;;;;;5010450;28;20479;-70
2022/09/02 11:48:53;;;;;;;0.90;0.60;;;24.40;35.60;;;;;;5035106;28;20029;-71
2022/09/02 11:51:51;;;;;;;1.00;0.90;;;24.40;35.00;;;;;;5035119;28;20029;-71
2022/09/02 11:54:19;;;;;;;3.15;0.60;;;24.40;35.00;;;;;;4973825;28;20043;-70
2022/09/02 11:56:55;;;;;;;1.67;0.93;;;24.40;35.50;;;;;;4974995;28;20043;-71
2022/09/02 11:59:41;;;;;;;1.73;1.05;;;24.50;35.30;;;;;;4973988;28;20043;-71
2022/09/02 12:02:06;;;;;;;2.28;0.90;;;24.50;35.30;;;;;;4974057;28;20054;-70
2022/09/02 12:04:32;;;;;;;1.55;1.05;;;24.60;34.80;;;;;;4973602;28;20071;-71
2022/09/02 12:07:07;;;;;;;1.02;0.70;;;24.60;34.70;;;;;;4973769;28;20042;-71
2022/09/02 12:09:49;;;;;;;1.17;0.82;;;24.70;35.30;;;;;;4973871;28;20027;-70
2022/09/02 12:12:37;;;;;;;2.03;0.70;;;24.80;34.40;;;;;;4973648;28;20027;-70
2022/09/02 12:15:06;;;;;;;1.63;0.82;;;24.80;34.40;;;;;;4987952;28;20415;-71
2022/09/02 12:17:52;;;;;;;1.15;0.70;;;24.80;34.50;;;;;;4976657;28;20045;-71
2022/09/02 12:20:37;;;;;;;1.73;0.75;;;24.90;35.20;;;;;;4992623;28;20038;-71
2022/09/02 12:23:04;;;;;;;2.67;0.95;;;24.90;34.80;;;;;;4992683;28;20574;-71
2022/09/02 12:25:42;;;;;;;1.13;0.80;;;25.00;33.90;;;;;;4992704;28;20084;-71
2022/09/02 12:28:13;;;;;;;3.33;0.88;;;25.10;33.10;;;;;;4992778;28;20029;-71
2022/09/02 12:31:02;;;;;;;1.13;0.70;;;25.20;33.00;;;;;;5012390;28;20040;-69
2022/09/02 12:33:33;;;;;;;0.82;0.75;;;25.30;33.10;;;;;;5054179;28;20379;-69
2022/09/02 12:36:01;;;;;;;2.10;0.77;;;25.40;32.40;;;;;;5054154;28;20414;-69
2022/09/02 12:38:47;;;;;;;5.75;1.10;;;25.40;31.80;;;;;;5054037;28;20021;-69
2022/09/02 12:41:23;;;;;;;1.15;0.80;;;25.40;32.60;;;;;;5053541;28;20043;-70
2022/09/02 12:44:00;;;;;;;1.30;0.80;;;25.40;32.80;;;;;;5049866;28;20039;-70
2022/09/02 12:46:35;;;;;;;0.90;0.70;;;25.40;32.30;;;;;;5053482;28;20027;-70
2022/09/02 12:49:13;;;;;;;4.90;0.90;;;25.30;32.70;;;;;;5053816;28;20025;-70
2022/09/02 12:52:01;;;;;;;3.90;1.00;;;25.30;33.00;;;;;;5053913;28;20104;-70
2022/09/02 12:54:41;;;;;;;1.17;0.88;;;25.20;33.10;;;;;;5053824;28;20087;-70
2022/09/02 12:57:09;;;;;;;1.25;0.75;;;25.20;33.40;;;;;;5053444;28;20155;-70
2022/09/02 12:59:37;;;;;;;2.05;0.90;;;25.20;33.50;;;;;;5053450;28;20025;-70
2022/09/02 13:02:41;;;;;;;1.20;0.70;;;25.10;32.80;;;;;;5035607;28;20434;-70
2022/09/02 13:05:14;;;;;;;1.73;0.80;;;25.10;33.10;;;;;;5035546;28;20029;-70
2022/09/02 13:08:17;;;;;;;1.67;0.88;;;25.00;33.60;;;;;;5053569;28;20025;-70